sensor_id;sensor_type;location;lat;lon;timestamp;P1;durP1;ratioP1;P2;durP2;ratioP2
54408;SDS011;40315;48.620;9.828;2023-11-22T00:00:21;19.05;;;11.60;;
54408;SDS011;40315;48.620;9.828;2023-11-22T00:02:48;17.90;;;11.25;;
54408;SDS011;40315;48.620;9.828;2023-11-22T00:05:15;18.88;;;11.73;;
54408;SDS011;40315;48.620;9.828;2023-11-22T00:07:45;16.00;;;10.85;;
54408;SDS011;40315;48.620;9.828;2023-11-22T00:10:15;19.73;;;11.15;;
54408;SDS011;40315;48.620;9.828;2023-11-22T00:12:43;14.75;;;10.02;;
54408;SDS011;40315;48.620;9.828;2023-11-22T00:15:10;14.00;;;9.65;;
54408;SDS011;40315;48.620;9.828;2023-11-22T00:17:38;15.25;;;10.50;;
54408;SDS011;40315;48.620;9.828;2023-11-22T00:20:05;13.98;;;9.05;;
54408;SDS011;40315;48.620;9.828;2023-11-22T00:22:33;13.15;;;9.55;;
54408;SDS011;40315;48.620;9.828;2023-11-22T00:25:00;12.55;;;8.85;;
54408;SDS011;40315;48.620;9.828;2023-11-22T00:27:30;13.38;;;8.93;;
54408;SDS011;40315;48.620;9.828;2023-11-22T00:29:59;13.65;;;9.43;;
54408;SDS011;40315;48.620;9.828;2023-11-22T00:32:26;12.70;;;8.75;;
54408;SDS011;40315;48.620;9.828;2023-11-22T00:34:53;13.45;;;8.70;;
54408;SDS011;40315;48.620;9.828;2023-11-22T00:37:20;9.70;;;6.75;;
54408;SDS011;40315;48.620;9.828;2023-11-22T00:39:47;4.72;;;3.58;;
54408;SDS011;40315;48.620;9.828;2023-11-22T00:42:14;4.68;;;3.28;;
54408;SDS011;40315;48.620;9.828;2023-11-22T00:44:45;3.22;;;2.67;;
54408;SDS011;40315;48.620;9.828;2023-11-22T00:47:13;3.47;;;2.50;;
54408;SDS011;40315;48.620;9.828;2023-11-22T00:49:43;2.70;;;1.77;;
54408;SDS011;40315;48.620;9.828;2023-11-22T00:52:10;2.15;;;1.85;;
54408;SDS011;40315;48.620;9.828;2023-11-22T00:54:40;2.20;;;1.88;;
54408;SDS011;40315;48.620;9.828;2023-11-22T00:57:09;3.28;;;1.73;;
54408;SDS011;40315;48.620;9.828;2023-11-22T00:59:39;2.75;;;1.60;;
54408;SDS011;40315;48.620;9.828;2023-11-22T01:02:06;1.42;;;1.33;;
54408;SDS011;40315;48.620;9.828;2023-11-22T01:04:35;2.03;;;1.70;;
54408;SDS011;40315;48.620;9.828;2023-11-22T01:07:02;1.60;;;1.20;;
54408;SDS011;40315;48.620;9.828;2023-11-22T01:09:31;1.65;;;1.50;;
54408;SDS011;40315;48.620;9.828;2023-11-22T01:11:58;1.38;;;1.23;;
54408;SDS011;40315;48.620;9.828;2023-11-22T01:14:25;1.40;;;1.23;;
54408;SDS011;40315;48.620;9.828;2023-11-22T01:16:52;1.50;;;1.20;;
54408;SDS011;40315;48.620;9.828;2023-11-22T01:19:22;1.35;;;1.25;;
54408;SDS011;40315;48.620;9.828;2023-11-22T01:21:55;1.23;;;1.00;;
54408;SDS011;40315;48.620;9.828;2023-11-22T01:24:22;1.70;;;1.30;;
54408;SDS011;40315;48.620;9.828;2023-11-22T01:26:50;1.48;;;1.30;;
54408;SDS011;40315;48.620;9.828;2023-11-22T01:29:19;2.45;;;1.45;;
54408;SDS011;40315;48.620;9.828;2023-11-22T01:31:46;1.48;;;1.30;;
54408;SDS011;40315;48.620;9.828;2023-11-22T01:34:14;2.83;;;1.70;;
54408;SDS011;40315;48.620;9.828;2023-11-22T01:36:42;1.98;;;1.65;;
54408;SDS011;40315;48.620;9.828;2023-11-22T01:39:11;2.22;;;1.80;;
54408;SDS011;40315;48.620;9.828;2023-11-22T01:41:40;2.20;;;1.60;;
54408;SDS011;40315;48.620;9.828;2023-11-22T01:44:07;2.50;;;2.00;;
54408;SDS011;40315;48.620;9.828;2023-11-22T01:46:34;2.60;;;1.60;;
54408;SDS011;40315;48.620;9.828;2023-11-22T01:49:01;2.42;;;1.70;;
54408;SDS011;40315;48.620;9.828;2023-11-22T02:08:51;2.10;;;1.77;;
54408;SDS011;40315;48.620;9.828;2023-11-22T02:11:20;2.70;;;2.03;;
54408;SDS011;40315;48.620;9.828;2023-11-22T02:13:47;3.20;;;2.30;;
54408;SDS011;40315;48.620;9.828;2023-11-22T02:16:15;3.67;;;2.50;;
54408;SDS011;40315;48.620;9.828;2023-11-22T02:18:43;2.63;;;1.95;;
54408;SDS011;40315;48.620;9.828;2023-11-22T02:21:10;2.22;;;2.03;;
54408;SDS011;40315;48.620;9.828;2023-11-22T02:23:42;3.13;;;2.17;;
54408;SDS011;40315;48.620;9.828;2023-11-22T02:26:09;3.05;;;2.30;;
54408;SDS011;40315;48.620;9.828;2023-11-22T02:28:36;3.30;;;2.05;;
54408;SDS011;40315;48.620;9.828;2023-11-22T02:31:03;3.63;;;1.90;;
54408;SDS011;40315;48.620;9.828;2023-11-22T02:33:30;2.80;;;2.10;;
54408;SDS011;40315;48.620;9.828;2023-11-22T02:35:57;2.85;;;2.17;;
54408;SDS011;40315;48.620;9.828;2023-11-22T02:38:24;2.22;;;1.70;;
54408;SDS011;40315;48.620;9.828;2023-11-22T02:40:54;3.15;;;2.40;;
54408;SDS011;40315;48.620;9.828;2023-11-22T02:43:21;2.97;;;2.20;;
54408;SDS011;40315;48.620;9.828;2023-11-22T02:45:50;3.30;;;2.83;;
54408;SDS011;40315;48.620;9.828;2023-11-22T02:48:17;4.53;;;3.38;;
54408;SDS011;40315;48.620;9.828;2023-11-22T02:50:44;4.90;;;3.30;;
54408;SDS011;40315;48.620;9.828;2023-11-22T02:53:11;4.72;;;3.40;;
54408;SDS011;40315;48.620;9.828;2023-11-22T02:55:38;3.70;;;2.90;;
54408;SDS011;40315;48.620;9.828;2023-11-22T02:58:07;3.63;;;2.78;;
54408;SDS011;40315;48.620;9.828;2023-11-22T03:00:34;3.58;;;2.90;;
54408;SDS011;40315;48.620;9.828;2023-11-22T03:03:03;4.25;;;2.85;;
54408;SDS011;40315;48.620;9.828;2023-11-22T03:05:35;3.90;;;2.80;;
54408;SDS011;40315;48.620;9.828;2023-11-22T03:08:02;4.45;;;3.05;;
54408;SDS011;40315;48.620;9.828;2023-11-22T03:10:34;4.20;;;3.05;;
54408;SDS011;40315;48.620;9.828;2023-11-22T03:13:01;5.90;;;3.60;;
54408;SDS011;40315;48.620;9.828;2023-11-22T03:15:32;6.32;;;4.18;;
54408;SDS011;40315;48.620;9.828;2023-11-22T03:17:59;5.00;;;3.35;;
54408;SDS011;40315;48.620;9.828;2023-11-22T03:20:28;6.88;;;4.15;;
54408;SDS011;40315;48.620;9.828;2023-11-22T03:22:56;5.90;;;3.70;;
54408;SDS011;40315;48.620;9.828;2023-11-22T03:25:23;5.15;;;4.03;;
54408;SDS011;40315;48.620;9.828;2023-11-22T03:27:50;6.20;;;3.95;;
54408;SDS011;40315;48.620;9.828;2023-11-22T03:30:17;5.95;;;4.13;;
54408;SDS011;40315;48.620;9.828;2023-11-22T03:32:46;5.88;;;4.53;;
54408;SDS011;40315;48.620;9.828;2023-11-22T03:35:16;5.72;;;4.43;;
54408;SDS011;40315;48.620;9.828;2023-11-22T03:37:43;5.88;;;4.35;;
54408;SDS011;40315;48.620;9.828;2023-11-22T03:40:10;6.68;;;5.00;;
54408;SDS011;40315;48.620;9.828;2023-11-22T03:42:38;6.68;;;5.18;;
54408;SDS011;40315;48.620;9.828;2023-11-22T03:45:06;8.18;;;5.63;;
54408;SDS011;40315;48.620;9.828;2023-11-22T03:47:34;7.28;;;5.28;;
54408;SDS011;40315;48.620;9.828;2023-11-22T03:50:05;8.27;;;5.87;;
54408;SDS011;40315;48.620;9.828;2023-11-22T03:52:36;8.93;;;6.13;;
54408;SDS011;40315;48.620;9.828;2023-11-22T03:55:05;9.20;;;6.68;;
54408;SDS011;40315;48.620;9.828;2023-11-22T03:57:33;11.13;;;6.70;;
54408;SDS011;40315;48.620;9.828;2023-11-22T04:00:00;9.68;;;6.88;;
54408;SDS011;40315;48.620;9.828;2023-11-22T04:02:27;9.23;;;6.70;;
54408;SDS011;40315;48.620;9.828;2023-11-22T04:04:56;9.38;;;6.40;;
54408;SDS011;40315;48.620;9.828;2023-11-22T04:07:25;8.63;;;6.07;;
54408;SDS011;40315;48.620;9.828;2023-11-22T04:09:52;9.20;;;5.75;;
54408;SDS011;40315;48.620;9.828;2023-11-22T04:12:19;7.57;;;5.35;;
54408;SDS011;40315;48.620;9.828;2023-11-22T04:14:45;7.93;;;5.78;;
54408;SDS011;40315;48.620;9.828;2023-11-22T04:17:15;7.72;;;5.20;;
54408;SDS011;40315;48.620;9.828;2023-11-22T04:19:42;6.90;;;5.05;;
54408;SDS011;40315;48.620;9.828;2023-11-22T04:22:09;8.63;;;5.38;;
54408;SDS011;40315;48.620;9.828;2023-11-22T04:24:37;9.43;;;5.57;;
54408;SDS011;40315;48.620;9.828;2023-11-22T04:27:04;9.77;;;5.93;;
54408;SDS011;40315;48.620;9.828;2023-11-22T04:29:31;7.45;;;5.72;;
54408;SDS011;40315;48.620;9.828;2023-11-22T04:32:01;8.38;;;6.45;;
54408;SDS011;40315;48.620;9.828;2023-11-22T04:34:27;8.13;;;5.85;;
54408;SDS011;40315;48.620;9.828;2023-11-22T04:36:57;7.85;;;5.65;;
54408;SDS011;40315;48.620;9.828;2023-11-22T04:39:24;6.88;;;5.38;;
54408;SDS011;40315;48.620;9.828;2023-11-22T04:41:52;8.35;;;5.30;;
54408;SDS011;40315;48.620;9.828;2023-11-22T04:44:19;7.30;;;5.32;;
54408;SDS011;40315;48.620;9.828;2023-11-22T04:46:46;9.18;;;6.07;;
54408;SDS011;40315;48.620;9.828;2023-11-22T04:49:13;6.72;;;5.10;;
54408;SDS011;40315;48.620;9.828;2023-11-22T04:51:40;7.43;;;5.57;;
54408;SDS011;40315;48.620;9.828;2023-11-22T04:54:08;7.95;;;5.70;;
54408;SDS011;40315;48.620;9.828;2023-11-22T04:56:35;8.20;;;5.72;;
54408;SDS011;40315;48.620;9.828;2023-11-22T04:59:03;7.70;;;5.43;;
54408;SDS011;40315;48.620;9.828;2023-11-22T05:01:32;9.30;;;5.85;;
54408;SDS011;40315;48.620;9.828;2023-11-22T05:04:01;10.95;;;5.78;;
54408;SDS011;40315;48.620;9.828;2023-11-22T05:06:31;7.30;;;5.65;;
54408;SDS011;40315;48.620;9.828;2023-11-22T05:09:00;8.43;;;6.10;;
54408;SDS011;40315;48.620;9.828;2023-11-22T05:11:27;8.48;;;5.70;;
54408;SDS011;40315;48.620;9.828;2023-11-22T05:13:54;7.72;;;5.43;;
54408;SDS011;40315;48.620;9.828;2023-11-22T05:16:22;5.97;;;5.00;;
54408;SDS011;40315;48.620;9.828;2023-11-22T05:18:50;6.70;;;5.35;;
54408;SDS011;40315;48.620;9.828;2023-11-22T05:21:19;6.93;;;5.22;;
54408;SDS011;40315;48.620;9.828;2023-11-22T05:23:49;7.53;;;5.43;;
54408;SDS011;40315;48.620;9.828;2023-11-22T05:26:17;7.60;;;4.90;;
54408;SDS011;40315;48.620;9.828;2023-11-22T05:28:44;7.43;;;4.85;;
54408;SDS011;40315;48.620;9.828;2023-11-22T05:31:12;6.60;;;4.70;;
54408;SDS011;40315;48.620;9.828;2023-11-22T05:33:40;7.00;;;5.30;;
54408;SDS011;40315;48.620;9.828;2023-11-22T05:36:07;6.43;;;4.97;;
54408;SDS011;40315;48.620;9.828;2023-11-22T05:38:36;7.75;;;5.05;;
54408;SDS011;40315;48.620;9.828;2023-11-22T05:41:04;6.63;;;4.88;;
54408;SDS011;40315;48.620;9.828;2023-11-22T05:43:32;8.13;;;5.18;;
54408;SDS011;40315;48.620;9.828;2023-11-22T05:46:01;7.90;;;5.43;;
54408;SDS011;40315;48.620;9.828;2023-11-22T05:48:29;9.73;;;5.78;;
54408;SDS011;40315;48.620;9.828;2023-11-22T05:50:58;7.28;;;5.05;;
54408;SDS011;40315;48.620;9.828;2023-11-22T05:53:25;6.82;;;5.00;;
54408;SDS011;40315;48.620;9.828;2023-11-22T05:55:52;6.15;;;4.82;;
54408;SDS011;40315;48.620;9.828;2023-11-22T05:58:19;8.23;;;7.13;;
54408;SDS011;40315;48.620;9.828;2023-11-22T06:00:46;6.60;;;5.10;;
54408;SDS011;40315;48.620;9.828;2023-11-22T06:03:13;6.53;;;4.93;;
54408;SDS011;40315;48.620;9.828;2023-11-22T06:05:40;8.02;;;5.10;;
54408;SDS011;40315;48.620;9.828;2023-11-22T06:08:09;6.40;;;4.40;;
54408;SDS011;40315;48.620;9.828;2023-11-22T06:10:36;6.97;;;4.47;;
54408;SDS011;40315;48.620;9.828;2023-11-22T06:13:03;6.55;;;4.93;;
54408;SDS011;40315;48.620;9.828;2023-11-22T06:15:32;5.40;;;4.15;;
54408;SDS011;40315;48.620;9.828;2023-11-22T06:17:59;5.10;;;4.20;;
54408;SDS011;40315;48.620;9.828;2023-11-22T06:20:26;5.13;;;3.95;;
54408;SDS011;40315;48.620;9.828;2023-11-22T06:22:53;5.75;;;3.95;;
54408;SDS011;40315;48.620;9.828;2023-11-22T06:25:21;4.53;;;3.53;;
54408;SDS011;40315;48.620;9.828;2023-11-22T06:27:49;4.10;;;3.25;;
54408;SDS011;40315;48.620;9.828;2023-11-22T06:30:17;5.20;;;3.28;;
54408;SDS011;40315;48.620;9.828;2023-11-22T06:32:46;4.00;;;3.30;;
54408;SDS011;40315;48.620;9.828;2023-11-22T06:35:14;4.63;;;3.08;;
54408;SDS011;40315;48.620;9.828;2023-11-22T06:37:42;4.55;;;3.72;;
54408;SDS011;40315;48.620;9.828;2023-11-22T06:40:10;5.53;;;4.13;;
54408;SDS011;40315;48.620;9.828;2023-11-22T06:42:40;4.28;;;3.47;;
54408;SDS011;40315;48.620;9.828;2023-11-22T06:45:07;5.28;;;3.28;;
54408;SDS011;40315;48.620;9.828;2023-11-22T06:47:35;4.30;;;3.38;;
54408;SDS011;40315;48.620;9.828;2023-11-22T06:50:03;6.35;;;4.20;;
54408;SDS011;40315;48.620;9.828;2023-11-22T06:52:34;9.77;;;6.43;;
54408;SDS011;40315;48.620;9.828;2023-11-22T06:55:01;7.35;;;5.00;;
54408;SDS011;40315;48.620;9.828;2023-11-22T06:57:28;5.13;;;4.43;;
54408;SDS011;40315;48.620;9.828;2023-11-22T06:59:57;6.82;;;4.63;;
54408;SDS011;40315;48.620;9.828;2023-11-22T07:02:26;5.65;;;4.45;;
54408;SDS011;40315;48.620;9.828;2023-11-22T07:04:54;7.07;;;5.13;;
54408;SDS011;40315;48.620;9.828;2023-11-22T07:07:24;7.93;;;5.03;;
54408;SDS011;40315;48.620;9.828;2023-11-22T07:09:51;7.10;;;5.15;;
54408;SDS011;40315;48.620;9.828;2023-11-22T07:12:18;7.78;;;5.68;;
54408;SDS011;40315;48.620;9.828;2023-11-22T07:14:45;7.15;;;4.80;;
54408;SDS011;40315;48.620;9.828;2023-11-22T07:17:16;6.88;;;5.25;;
54408;SDS011;40315;48.620;9.828;2023-11-22T07:19:43;6.90;;;4.32;;
54408;SDS011;40315;48.620;9.828;2023-11-22T07:22:12;6.57;;;4.53;;
54408;SDS011;40315;48.620;9.828;2023-11-22T07:24:42;5.72;;;3.97;;
54408;SDS011;40315;48.620;9.828;2023-11-22T07:27:10;6.53;;;3.90;;
54408;SDS011;40315;48.620;9.828;2023-11-22T07:29:37;5.60;;;4.00;;
54408;SDS011;40315;48.620;9.828;2023-11-22T07:32:06;5.25;;;4.00;;
54408;SDS011;40315;48.620;9.828;2023-11-22T07:34:37;3.80;;;3.25;;
54408;SDS011;40315;48.620;9.828;2023-11-22T07:37:06;4.10;;;3.50;;
54408;SDS011;40315;48.620;9.828;2023-11-22T07:39:33;5.30;;;3.33;;
54408;SDS011;40315;48.620;9.828;2023-11-22T07:42:01;7.28;;;4.32;;
54408;SDS011;40315;48.620;9.828;2023-11-22T07:44:28;4.28;;;3.40;;
54408;SDS011;40315;48.620;9.828;2023-11-22T07:46:57;4.78;;;3.47;;
54408;SDS011;40315;48.620;9.828;2023-11-22T07:49:25;5.60;;;3.65;;
54408;SDS011;40315;48.620;9.828;2023-11-22T07:51:56;4.38;;;3.70;;
54408;SDS011;40315;48.620;9.828;2023-11-22T07:54:23;4.57;;;3.22;;
54408;SDS011;40315;48.620;9.828;2023-11-22T07:56:50;3.40;;;2.60;;
54408;SDS011;40315;48.620;9.828;2023-11-22T07:59:18;3.03;;;2.60;;
54408;SDS011;40315;48.620;9.828;2023-11-22T08:01:45;3.63;;;2.67;;
54408;SDS011;40315;48.620;9.828;2023-11-22T08:04:13;2.38;;;2.17;;
54408;SDS011;40315;48.620;9.828;2023-11-22T08:06:40;6.10;;;4.13;;
54408;SDS011;40315;48.620;9.828;2023-11-22T08:09:09;3.95;;;3.50;;
54408;SDS011;40315;48.620;9.828;2023-11-22T08:11:36;4.90;;;3.25;;
54408;SDS011;40315;48.620;9.828;2023-11-22T08:14:03;3.88;;;3.28;;
54408;SDS011;40315;48.620;9.828;2023-11-22T08:16:31;4.20;;;2.90;;
54408;SDS011;40315;48.620;9.828;2023-11-22T08:19:03;3.17;;;2.50;;
54408;SDS011;40315;48.620;9.828;2023-11-22T08:21:30;3.70;;;2.65;;
54408;SDS011;40315;48.620;9.828;2023-11-22T08:23:58;2.65;;;2.20;;
54408;SDS011;40315;48.620;9.828;2023-11-22T08:26:27;2.10;;;1.80;;
54408;SDS011;40315;48.620;9.828;2023-11-22T08:28:53;2.27;;;1.70;;
54408;SDS011;40315;48.620;9.828;2023-11-22T08:31:23;2.50;;;2.10;;
54408;SDS011;40315;48.620;9.828;2023-11-22T08:33:51;3.58;;;2.38;;
54408;SDS011;40315;48.620;9.828;2023-11-22T08:36:18;3.22;;;2.72;;
54408;SDS011;40315;48.620;9.828;2023-11-22T08:38:45;3.05;;;2.35;;
54408;SDS011;40315;48.620;9.828;2023-11-22T08:41:12;3.00;;;2.55;;
54408;SDS011;40315;48.620;9.828;2023-11-22T08:43:40;3.30;;;2.90;;
54408;SDS011;40315;48.620;9.828;2023-11-22T08:46:07;5.72;;;3.00;;
54408;SDS011;40315;48.620;9.828;2023-11-22T08:48:35;4.53;;;3.10;;
54408;SDS011;40315;48.620;9.828;2023-11-22T08:51:02;4.03;;;3.20;;
54408;SDS011;40315;48.620;9.828;2023-11-22T08:53:30;3.60;;;3.10;;
54408;SDS011;40315;48.620;9.828;2023-11-22T08:55:58;4.22;;;3.35;;
54408;SDS011;40315;48.620;9.828;2023-11-22T08:58:25;5.65;;;3.20;;
54408;SDS011;40315;48.620;9.828;2023-11-22T09:00:53;3.63;;;2.88;;
54408;SDS011;40315;48.620;9.828;2023-11-22T09:03:23;5.82;;;3.42;;
54408;SDS011;40315;48.620;9.828;2023-11-22T09:05:50;3.58;;;2.65;;
54408;SDS011;40315;48.620;9.828;2023-11-22T09:08:18;3.67;;;2.65;;
54408;SDS011;40315;48.620;9.828;2023-11-22T09:10:46;3.53;;;2.78;;
54408;SDS011;40315;48.620;9.828;2023-11-22T09:13:13;3.28;;;2.63;;
54408;SDS011;40315;48.620;9.828;2023-11-22T09:15:41;4.13;;;2.40;;
54408;SDS011;40315;48.620;9.828;2023-11-22T09:18:13;3.10;;;2.67;;
54408;SDS011;40315;48.620;9.828;2023-11-22T09:20:41;4.13;;;3.08;;
54408;SDS011;40315;48.620;9.828;2023-11-22T09:23:10;3.53;;;3.05;;
54408;SDS011;40315;48.620;9.828;2023-11-22T09:25:42;5.22;;;3.40;;
54408;SDS011;40315;48.620;9.828;2023-11-22T09:28:09;4.60;;;3.60;;
54408;SDS011;40315;48.620;9.828;2023-11-22T09:30:39;4.85;;;3.40;;
54408;SDS011;40315;48.620;9.828;2023-11-22T09:33:08;4.25;;;3.10;;
54408;SDS011;40315;48.620;9.828;2023-11-22T09:35:39;4.40;;;3.50;;
54408;SDS011;40315;48.620;9.828;2023-11-22T09:38:07;3.63;;;3.17;;
54408;SDS011;40315;48.620;9.828;2023-11-22T09:40:38;3.88;;;2.85;;
54408;SDS011;40315;48.620;9.828;2023-11-22T09:43:07;2.80;;;2.55;;
54408;SDS011;40315;48.620;9.828;2023-11-22T09:45:34;3.15;;;2.88;;
54408;SDS011;40315;48.620;9.828;2023-11-22T09:48:03;4.10;;;3.13;;
54408;SDS011;40315;48.620;9.828;2023-11-22T09:50:40;4.85;;;4.00;;
54408;SDS011;40315;48.620;9.828;2023-11-22T09:53:18;5.55;;;3.58;;
54408;SDS011;40315;48.620;9.828;2023-11-22T09:55:57;5.00;;;3.50;;
54408;SDS011;40315;48.620;9.828;2023-11-22T09:58:24;4.75;;;3.97;;
54408;SDS011;40315;48.620;9.828;2023-11-22T10:00:54;5.80;;;4.35;;
54408;SDS011;40315;48.620;9.828;2023-11-22T10:03:21;5.40;;;4.20;;
54408;SDS011;40315;48.620;9.828;2023-11-22T10:05:51;4.43;;;4.00;;
54408;SDS011;40315;48.620;9.828;2023-11-22T10:08:19;5.03;;;3.92;;
54408;SDS011;40315;48.620;9.828;2023-11-22T10:10:47;5.28;;;4.30;;
54408;SDS011;40315;48.620;9.828;2023-11-22T10:13:16;5.15;;;4.03;;
54408;SDS011;40315;48.620;9.828;2023-11-22T10:15:47;4.80;;;3.75;;
54408;SDS011;40315;48.620;9.828;2023-11-22T10:18:14;4.38;;;3.67;;
54408;SDS011;40315;48.620;9.828;2023-11-22T10:20:43;3.47;;;2.97;;
54408;SDS011;40315;48.620;9.828;2023-11-22T10:23:14;5.30;;;3.83;;
54408;SDS011;40315;48.620;9.828;2023-11-22T10:25:43;4.35;;;3.35;;
54408;SDS011;40315;48.620;9.828;2023-11-22T10:28:12;4.38;;;3.22;;
54408;SDS011;40315;48.620;9.828;2023-11-22T10:30:40;3.70;;;3.00;;
54408;SDS011;40315;48.620;9.828;2023-11-22T10:33:09;3.50;;;3.20;;
54408;SDS011;40315;48.620;9.828;2023-11-22T10:35:39;3.77;;;3.10;;
54408;SDS011;40315;48.620;9.828;2023-11-22T10:38:08;4.65;;;3.22;;
54408;SDS011;40315;48.620;9.828;2023-11-22T10:40:37;4.88;;;3.33;;
54408;SDS011;40315;48.620;9.828;2023-11-22T10:43:06;4.45;;;3.55;;
54408;SDS011;40315;48.620;9.828;2023-11-22T10:45:35;4.57;;;3.72;;
54408;SDS011;40315;48.620;9.828;2023-11-22T10:48:07;4.32;;;3.35;;
54408;SDS011;40315;48.620;9.828;2023-11-22T10:50:37;4.00;;;3.20;;
54408;SDS011;40315;48.620;9.828;2023-11-22T10:53:05;4.85;;;3.90;;
54408;SDS011;40315;48.620;9.828;2023-11-22T10:55:42;4.88;;;4.20;;
54408;SDS011;40315;48.620;9.828;2023-11-22T10:58:15;6.85;;;3.80;;
54408;SDS011;40315;48.620;9.828;2023-11-22T11:00:42;4.43;;;3.55;;
54408;SDS011;40315;48.620;9.828;2023-11-22T11:03:14;5.47;;;4.00;;
54408;SDS011;40315;48.620;9.828;2023-11-22T11:05:45;5.88;;;5.07;;
54408;SDS011;40315;48.620;9.828;2023-11-22T11:08:17;6.70;;;6.00;;
54408;SDS011;40315;48.620;9.828;2023-11-22T11:10:47;4.68;;;4.18;;
54408;SDS011;40315;48.620;9.828;2023-11-22T11:13:15;6.47;;;4.43;;
54408;SDS011;40315;48.620;9.828;2023-11-22T11:15:45;5.93;;;4.85;;
54408;SDS011;40315;48.620;9.828;2023-11-22T11:18:13;6.57;;;5.20;;
54408;SDS011;40315;48.620;9.828;2023-11-22T11:20:45;6.57;;;4.70;;
54408;SDS011;40315;48.620;9.828;2023-11-22T11:23:15;5.05;;;4.22;;
54408;SDS011;40315;48.620;9.828;2023-11-22T11:25:42;7.93;;;5.35;;
54408;SDS011;40315;48.620;9.828;2023-11-22T11:28:13;5.78;;;4.75;;
54408;SDS011;40315;48.620;9.828;2023-11-22T11:30:44;6.13;;;4.72;;
54408;SDS011;40315;48.620;9.828;2023-11-22T11:33:13;6.13;;;4.70;;
54408;SDS011;40315;48.620;9.828;2023-11-22T11:35:43;5.63;;;4.45;;
54408;SDS011;40315;48.620;9.828;2023-11-22T11:38:12;8.02;;;4.85;;
54408;SDS011;40315;48.620;9.828;2023-11-22T11:40:40;6.57;;;4.50;;
54408;SDS011;40315;48.620;9.828;2023-11-22T11:43:07;5.93;;;4.72;;
54408;SDS011;40315;48.620;9.828;2023-11-22T11:45:39;5.88;;;4.38;;
54408;SDS011;40315;48.620;9.828;2023-11-22T11:48:13;6.00;;;4.53;;
54408;SDS011;40315;48.620;9.828;2023-11-22T11:50:41;7.38;;;4.95;;
54408;SDS011;40315;48.620;9.828;2023-11-22T11:53:10;5.70;;;4.55;;
54408;SDS011;40315;48.620;9.828;2023-11-22T11:55:38;5.85;;;4.40;;
54408;SDS011;40315;48.620;9.828;2023-11-22T11:58:06;6.40;;;4.78;;
54408;SDS011;40315;48.620;9.828;2023-11-22T12:00:34;6.55;;;4.65;;
54408;SDS011;40315;48.620;9.828;2023-11-22T12:03:07;6.72;;;4.57;;
54408;SDS011;40315;48.620;9.828;2023-11-22T12:05:36;6.03;;;4.88;;
54408;SDS011;40315;48.620;9.828;2023-11-22T12:08:03;5.72;;;4.45;;
54408;SDS011;40315;48.620;9.828;2023-11-22T12:10:31;6.50;;;4.75;;
54408;SDS011;40315;48.620;9.828;2023-11-22T12:12:58;6.43;;;5.03;;
54408;SDS011;40315;48.620;9.828;2023-11-22T12:15:26;6.03;;;4.43;;
54408;SDS011;40315;48.620;9.828;2023-11-22T12:17:54;8.50;;;5.03;;
54408;SDS011;40315;48.620;9.828;2023-11-22T12:20:24;6.55;;;4.82;;
54408;SDS011;40315;48.620;9.828;2023-11-22T12:22:56;7.85;;;5.28;;
54408;SDS011;40315;48.620;9.828;2023-11-22T12:25:26;6.20;;;4.85;;
54408;SDS011;40315;48.620;9.828;2023-11-22T12:27:53;5.72;;;4.38;;
54408;SDS011;40315;48.620;9.828;2023-11-22T12:30:30;5.53;;;4.40;;
54408;SDS011;40315;48.620;9.828;2023-11-22T12:33:00;5.20;;;4.70;;
54408;SDS011;40315;48.620;9.828;2023-11-22T12:35:32;6.95;;;4.82;;
54408;SDS011;40315;48.620;9.828;2023-11-22T12:38:00;6.38;;;4.72;;
54408;SDS011;40315;48.620;9.828;2023-11-22T12:40:28;5.93;;;4.55;;
54408;SDS011;40315;48.620;9.828;2023-11-22T12:42:58;6.60;;;5.25;;
54408;SDS011;40315;48.620;9.828;2023-11-22T12:45:27;6.95;;;4.53;;
54408;SDS011;40315;48.620;9.828;2023-11-22T12:47:55;6.82;;;5.50;;
54408;SDS011;40315;48.620;9.828;2023-11-22T12:50:30;7.82;;;5.85;;
54408;SDS011;40315;48.620;9.828;2023-11-22T12:53:02;6.63;;;5.22;;
54408;SDS011;40315;48.620;9.828;2023-11-22T12:55:36;7.63;;;5.20;;
54408;SDS011;40315;48.620;9.828;2023-11-22T12:58:03;6.85;;;5.10;;
54408;SDS011;40315;48.620;9.828;2023-11-22T13:00:32;6.95;;;5.30;;
54408;SDS011;40315;48.620;9.828;2023-11-22T13:03:00;8.15;;;5.88;;
54408;SDS011;40315;48.620;9.828;2023-11-22T13:05:28;5.95;;;4.43;;
54408;SDS011;40315;48.620;9.828;2023-11-22T13:07:55;6.72;;;4.70;;
54408;SDS011;40315;48.620;9.828;2023-11-22T13:10:24;7.63;;;5.72;;
54408;SDS011;40315;48.620;9.828;2023-11-22T13:12:52;9.07;;;5.32;;
54408;SDS011;40315;48.620;9.828;2023-11-22T13:15:20;7.43;;;4.97;;
54408;SDS011;40315;48.620;9.828;2023-11-22T13:17:51;6.93;;;4.95;;
54408;SDS011;40315;48.620;9.828;2023-11-22T13:20:23;6.47;;;4.78;;
54408;SDS011;40315;48.620;9.828;2023-11-22T13:22:51;5.78;;;4.53;;
54408;SDS011;40315;48.620;9.828;2023-11-22T13:25:18;7.07;;;5.03;;
54408;SDS011;40315;48.620;9.828;2023-11-22T13:27:47;7.00;;;5.03;;
54408;SDS011;40315;48.620;9.828;2023-11-22T13:30:17;6.68;;;4.93;;
54408;SDS011;40315;48.620;9.828;2023-11-22T13:32:47;5.70;;;4.63;;
54408;SDS011;40315;48.620;9.828;2023-11-22T13:35:15;9.95;;;6.28;;
54408;SDS011;40315;48.620;9.828;2023-11-22T13:37:45;8.75;;;5.35;;
54408;SDS011;40315;48.620;9.828;2023-11-22T13:40:13;8.45;;;5.60;;
54408;SDS011;40315;48.620;9.828;2023-11-22T13:42:42;8.07;;;5.85;;
54408;SDS011;40315;48.620;9.828;2023-11-22T13:45:11;7.63;;;5.18;;
54408;SDS011;40315;48.620;9.828;2023-11-22T13:47:45;5.55;;;4.22;;
54408;SDS011;40315;48.620;9.828;2023-11-22T13:50:14;6.15;;;4.90;;
54408;SDS011;40315;48.620;9.828;2023-11-22T13:52:44;7.57;;;4.93;;
54408;SDS011;40315;48.620;9.828;2023-11-22T13:55:12;6.22;;;4.82;;
54408;SDS011;40315;48.620;9.828;2023-11-22T13:57:41;7.25;;;5.53;;
54408;SDS011;40315;48.620;9.828;2023-11-22T14:00:13;8.23;;;5.68;;
54408;SDS011;40315;48.620;9.828;2023-11-22T14:02:44;8.98;;;6.88;;
54408;SDS011;40315;48.620;9.828;2023-11-22T14:05:11;7.97;;;6.03;;
54408;SDS011;40315;48.620;9.828;2023-11-22T14:07:38;9.38;;;6.47;;
54408;SDS011;40315;48.620;9.828;2023-11-22T14:10:06;9.63;;;5.70;;
54408;SDS011;40315;48.620;9.828;2023-11-22T14:12:37;7.47;;;5.07;;
54408;SDS011;40315;48.620;9.828;2023-11-22T14:15:05;10.60;;;6.10;;
54408;SDS011;40315;48.620;9.828;2023-11-22T14:17:33;11.20;;;7.20;;
54408;SDS011;40315;48.620;9.828;2023-11-22T14:20:03;10.07;;;7.43;;
54408;SDS011;40315;48.620;9.828;2023-11-22T14:22:33;8.13;;;6.00;;
54408;SDS011;40315;48.620;9.828;2023-11-22T14:25:00;10.43;;;6.90;;
54408;SDS011;40315;48.620;9.828;2023-11-22T14:27:28;12.53;;;8.63;;
54408;SDS011;40315;48.620;9.828;2023-11-22T14:29:56;7.53;;;5.80;;
54408;SDS011;40315;48.620;9.828;2023-11-22T14:32:25;10.40;;;6.30;;
54408;SDS011;40315;48.620;9.828;2023-11-22T14:34:54;7.82;;;6.32;;
54408;SDS011;40315;48.620;9.828;2023-11-22T14:37:21;8.57;;;6.37;;
54408;SDS011;40315;48.620;9.828;2023-11-22T14:39:49;8.70;;;5.87;;
54408;SDS011;40315;48.620;9.828;2023-11-22T14:42:17;10.73;;;6.40;;
54408;SDS011;40315;48.620;9.828;2023-11-22T14:44:44;8.70;;;6.03;;
54408;SDS011;40315;48.620;9.828;2023-11-22T14:47:11;7.07;;;5.43;;
54408;SDS011;40315;48.620;9.828;2023-11-22T14:49:44;7.82;;;5.57;;
54408;SDS011;40315;48.620;9.828;2023-11-22T14:52:12;7.38;;;5.20;;
54408;SDS011;40315;48.620;9.828;2023-11-22T14:54:41;8.03;;;5.70;;
54408;SDS011;40315;48.620;9.828;2023-11-22T14:57:08;8.10;;;5.75;;
54408;SDS011;40315;48.620;9.828;2023-11-22T14:59:37;7.97;;;5.35;;
54408;SDS011;40315;48.620;9.828;2023-11-22T15:02:05;8.37;;;5.57;;
54408;SDS011;40315;48.620;9.828;2023-11-22T15:04:36;7.88;;;5.32;;
54408;SDS011;40315;48.620;9.828;2023-11-22T15:07:04;8.15;;;5.55;;
54408;SDS011;40315;48.620;9.828;2023-11-22T15:09:33;8.80;;;6.22;;